Time;durP1;ratioP1;P1;durP2;ratioP2;P2;SDS_P1;SDS_P2;PMS_P1;PMS_P2;Temp;Humidity;BMP_temperature;BMP_pressure;BME280_temperature;BME280_humidity;BME280_pressure;Samples;Min_cycle;Max_cycle;Signal;HPM_P1;HPM_P2
2021/09/25 00:00:41;;;;;;;6.20;4.10;;;16.10;63.20;;;;;;5055223;28;20021;-64
2021/09/25 00:03:07;;;;;;;5.10;4.03;;;16.10;63.60;;;;;;5053757;28;20045;-64
2021/09/25 00:05:38;;;;;;;9.52;4.35;;;16.10;63.80;;;;;;5053850;28;20040;-63
2021/09/25 00:08:05;;;;;;;5.80;4.25;;;16.10;64.00;;;;;;5053835;28;20086;-63
2021/09/25 00:10:33;;;;;;;12.52;4.55;;;16.10;63.80;;;;;;5053541;28;20116;-64
2021/09/25 00:12:59;;;;;;;6.93;4.15;;;16.10;63.70;;;;;;5053670;28;20036;-63
2021/09/25 00:15:29;;;;;;;6.03;4.28;;;16.10;63.90;;;;;;5053476;28;20025;-63
2021/09/25 00:17:56;;;;;;;5.97;4.50;;;16.10;64.00;;;;;;5053564;28;20100;-63
2021/09/25 00:20:22;;;;;;;5.22;4.05;;;16.10;64.40;;;;;;5052036;28;20032;-63
2021/09/25 00:22:48;;;;;;;7.22;4.05;;;16.00;64.20;;;;;;5053574;28;20494;-64
2021/09/25 00:25:14;;;;;;;7.63;4.78;;;16.00;64.20;;;;;;5053477;28;20053;-63
2021/09/25 00:27:40;;;;;;;5.90;3.72;;;16.00;64.40;;;;;;5053553;28;20493;-63
2021/09/25 00:30:08;;;;;;;7.28;4.20;;;16.00;64.30;;;;;;5053209;28;20029;-64
2021/09/25 00:32:34;;;;;;;5.85;4.28;;;16.00;64.40;;;;;;5053310;28;20025;-65
2021/09/25 00:35:00;;;;;;;6.95;4.75;;;16.00;64.30;;;;;;5052783;28;20028;-66
2021/09/25 00:37:25;;;;;;;5.40;3.97;;;15.90;64.30;;;;;;5053336;28;20013;-64
2021/09/25 00:39:51;;;;;;;5.05;3.88;;;15.90;64.30;;;;;;5053156;28;20454;-64
2021/09/25 00:42:17;;;;;;;5.30;4.28;;;15.90;64.00;;;;;;5053088;28;20064;-64
2021/09/25 00:44:43;;;;;;;4.80;3.97;;;15.90;64.40;;;;;;5053105;28;20028;-63
2021/09/25 00:47:09;;;;;;;5.82;3.90;;;15.90;65.00;;;;;;5053014;28;20048;-64
2021/09/25 00:49:34;;;;;;;5.60;4.10;;;15.90;64.80;;;;;;5052959;28;20049;-63
2021/09/25 00:52:00;;;;;;;7.35;4.55;;;15.90;65.20;;;;;;5052695;28;20382;-63
2021/09/25 00:54:26;;;;;;;8.18;4.63;;;15.90;65.50;;;;;;5052858;28;20079;-64
2021/09/25 00:56:52;;;;;;;7.53;4.32;;;15.90;65.40;;;;;;5052794;28;20029;-64
2021/09/25 00:59:19;;;;;;;7.47;3.78;;;15.90;65.20;;;;;;5052686;28;20044;-64
2021/09/25 01:01:45;;;;;;;4.95;3.72;;;15.90;65.00;;;;;;5052745;28;20568;-64
2021/09/25 01:04:12;;;;;;;5.38;4.05;;;15.90;64.80;;;;;;5064217;28;20103;-63
2021/09/25 01:06:38;;;;;;;5.03;3.78;;;15.80;64.60;;;;;;5072570;28;20060;-64
2021/09/25 01:09:05;;;;;;;5.82;4.10;;;15.80;64.50;;;;;;5072470;28;20103;-64
2021/09/25 01:11:31;;;;;;;5.03;3.40;;;15.80;64.60;;;;;;5072330;28;20024;-64
2021/09/25 01:13:57;;;;;;;6.63;4.13;;;15.80;64.50;;;;;;5072391;28;20457;-64
2021/09/25 01:16:23;;;;;;;9.25;4.30;;;15.80;64.60;;;;;;5072399;28;20108;-64
2021/09/25 01:18:50;;;;;;;8.65;4.28;;;15.80;64.70;;;;;;5072399;28;20021;-63
2021/09/25 01:21:17;;;;;;;4.82;3.28;;;15.70;64.60;;;;;;5072383;28;20381;-63
2021/09/25 01:23:43;;;;;;;9.23;4.65;;;15.70;64.50;;;;;;5071077;28;20062;-63
2021/09/25 01:26:10;;;;;;;7.18;4.88;;;15.70;65.10;;;;;;5072258;28;20024;-64
2021/09/25 01:28:37;;;;;;;5.50;4.25;;;15.70;65.10;;;;;;5072210;28;20021;-64
2021/09/25 01:31:06;;;;;;;8.35;4.65;;;15.70;65.10;;;;;;5072140;28;20591;-63
2021/09/25 01:33:42;;;;;;;6.25;5.00;;;15.70;65.20;;;;;;5072287;28;20086;-64
2021/09/25 01:36:08;;;;;;;5.85;4.50;;;15.60;65.10;;;;;;5072371;28;20841;-63
2021/09/25 01:38:35;;;;;;;7.03;4.50;;;15.60;64.90;;;;;;5072143;28;20025;-63
2021/09/25 01:41:00;;;;;;;5.63;4.05;;;15.60;64.80;;;;;;5072027;28;20025;-63
2021/09/25 01:43:28;;;;;;;6.95;4.35;;;15.60;64.80;;;;;;5072132;28;20078;-63
2021/09/25 01:45:54;;;;;;;8.60;4.80;;;15.60;64.70;;;;;;5072094;28;20024;-64
2021/09/25 01:48:19;;;;;;;7.07;4.50;;;15.60;64.70;;;;;;5071152;28;20390;-64
2021/09/25 01:50:46;;;;;;;6.65;4.80;;;15.50;64.70;;;;;;5071891;28;20059;-63
2021/09/25 01:53:12;;;;;;;6.68;4.78;;;15.50;64.80;;;;;;5059465;28;20016;-64
2021/09/25 01:55:38;;;;;;;8.60;4.53;;;15.40;64.70;;;;;;5051777;28;20031;-63
2021/09/25 01:58:06;;;;;;;6.00;5.03;;;15.40;64.70;;;;;;5051780;28;20021;-64
2021/09/25 02:00:34;;;;;;;6.22;4.72;;;15.40;64.80;;;;;;5051828;28;20028;-63
2021/09/25 02:03:01;;;;;;;7.05;5.15;;;15.30;64.80;;;;;;5051674;28;20098;-64
2021/09/25 02:05:27;;;;;;;9.35;5.93;;;15.30;64.90;;;;;;5057855;28;20024;-64
2021/09/25 02:07:53;;;;;;;9.88;5.85;;;15.30;65.30;;;;;;5071894;28;20028;-64
2021/09/25 02:10:19;;;;;;;8.70;5.40;;;15.30;65.20;;;;;;5069727;28;20108;-63
2021/09/25 02:12:52;;;;;;;8.25;4.68;;;15.30;65.30;;;;;;5067935;28;20024;-63
2021/09/25 02:15:18;;;;;;;6.70;5.07;;;15.30;65.30;;;;;;5050721;28;20033;-63
2021/09/25 02:17:44;;;;;;;9.60;5.93;;;15.20;65.20;;;;;;5066739;28;20021;-63
2021/09/25 02:20:11;;;;;;;8.23;5.85;;;15.20;65.30;;;;;;5066688;28;20056;-62
2021/09/25 02:22:38;;;;;;;11.48;5.90;;;15.20;65.40;;;;;;5069634;28;20032;-62
2021/09/25 02:25:06;;;;;;;11.32;5.57;;;15.20;65.60;;;;;;5071357;28;20024;-63
2021/09/25 02:27:32;;;;;;;8.85;5.15;;;15.20;65.70;;;;;;5071498;28;20025;-63
2021/09/25 02:29:58;;;;;;;8.25;5.30;;;15.20;65.50;;;;;;5071198;28;20115;-63
2021/09/25 02:32:23;;;;;;;11.20;5.38;;;15.20;65.50;;;;;;5070016;28;20103;-63
2021/09/25 02:34:49;;;;;;;9.32;5.15;;;15.10;65.50;;;;;;5071198;28;20025;-63
2021/09/25 02:37:15;;;;;;;8.75;5.28;;;15.10;65.50;;;;;;5052777;28;20025;-63
2021/09/25 02:39:41;;;;;;;10.07;4.82;;;15.10;65.50;;;;;;5051425;28;20025;-63
2021/09/25 02:42:07;;;;;;;7.13;5.25;;;15.10;65.40;;;;;;5051251;28;20387;-62
2021/09/25 02:44:32;;;;;;;8.48;5.65;;;15.10;65.50;;;;;;5049961;28;20027;-63
2021/09/25 02:46:58;;;;;;;10.65;5.40;;;15.10;65.50;;;;;;5050248;28;20391;-62
2021/09/25 02:49:25;;;;;;;8.63;5.13;;;15.00;65.40;;;;;;5069313;28;20035;-62
2021/09/25 02:51:51;;;;;;;7.00;4.82;;;15.00;65.50;;;;;;5070038;28;20036;-62
2021/09/25 02:54:17;;;;;;;12.43;5.05;;;15.00;65.40;;;;;;5051226;28;20029;-62
2021/09/25 02:56:42;;;;;;;6.93;5.20;;;15.00;65.50;;;;;;5051211;28;20033;-63
2021/09/25 02:59:08;;;;;;;8.77;5.78;;;15.00;65.50;;;;;;5051844;28;20017;-62
2021/09/25 03:01:34;;;;;;;10.07;5.80;;;14.90;65.60;;;;;;5054593;28;20037;-62
2021/09/25 03:03:59;;;;;;;8.95;5.60;;;14.90;65.70;;;;;;5054939;28;20033;-62
2021/09/25 03:06:26;;;;;;;7.57;5.53;;;14.90;65.80;;;;;;5054813;28;20044;-62
2021/09/25 03:08:52;;;;;;;8.65;5.43;;;14.90;65.80;;;;;;5068707;28;20390;-62
2021/09/25 03:11:19;;;;;;;10.90;6.22;;;14.80;65.80;;;;;;5073814;28;20474;-62
2021/09/25 03:13:45;;;;;;;8.00;6.20;;;14.80;65.80;;;;;;5074672;28;20141;-62
2021/09/25 03:16:11;;;;;;;7.70;6.03;;;14.80;66.00;;;;;;5074685;28;20150;-63
2021/09/25 03:18:37;;;;;;;8.20;6.05;;;14.80;66.00;;;;;;5074596;28;20020;-62
2021/09/25 03:21:03;;;;;;;9.48;6.03;;;14.80;66.00;;;;;;5074611;28;20025;-63
2021/09/25 03:23:29;;;;;;;10.18;6.68;;;14.80;66.00;;;;;;5074576;28;20367;-62
2021/09/25 03:25:55;;;;;;;8.68;6.35;;;14.80;66.20;;;;;;5054840;28;20377;-62
2021/09/25 03:28:20;;;;;;;9.73;6.22;;;14.70;66.20;;;;;;5054455;28;20152;-63
2021/09/25 03:30:46;;;;;;;11.65;6.00;;;14.70;66.20;;;;;;5054281;28;20108;-63
2021/09/25 03:33:12;;;;;;;7.38;5.80;;;14.70;66.20;;;;;;5054311;28;20048;-64
2021/09/25 03:35:46;;;;;;;9.50;6.78;;;14.70;66.10;;;;;;5054204;28;20033;-63
2021/09/25 03:38:21;;;;;;;10.57;6.53;;;14.70;66.30;;;;;;5054535;28;20434;-63
2021/09/25 03:40:50;;;;;;;7.47;5.65;;;14.70;66.40;;;;;;5061690;28;20039;-63
2021/09/25 03:43:18;;;;;;;10.32;6.32;;;14.60;66.30;;;;;;5055767;28;20036;-63
2021/09/25 03:45:44;;;;;;;7.65;6.13;;;14.60;66.50;;;;;;5058223;28;20028;-63
2021/09/25 03:48:11;;;;;;;9.55;6.75;;;14.60;66.40;;;;;;5074103;28;20032;-63
2021/09/25 03:50:37;;;;;;;8.50;6.78;;;14.60;66.50;;;;;;5063624;28;20033;-63
2021/09/25 03:53:03;;;;;;;8.57;6.47;;;14.60;66.70;;;;;;5054892;28;20021;-63
2021/09/25 03:55:29;;;;;;;10.65;7.13;;;14.60;66.60;;;;;;5064023;28;20164;-62
2021/09/25 03:57:56;;;;;;;9.30;7.05;;;14.50;66.70;;;;;;5053655;28;20021;-64
2021/09/25 04:00:23;;;;;;;11.93;7.28;;;14.60;66.90;;;;;;5054085;28;20554;-63
2021/09/25 04:02:50;;;;;;;9.13;6.50;;;14.50;66.80;;;;;;5053469;28;20056;-63
2021/09/25 04:05:18;;;;;;;10.65;6.78;;;14.50;66.80;;;;;;5053366;28;20078;-63
2021/09/25 04:07:44;;;;;;;9.70;6.72;;;14.50;66.90;;;;;;5053838;28;20130;-64
2021/09/25 04:10:11;;;;;;;8.65;6.13;;;14.50;66.80;;;;;;5059069;28;20167;-64
2021/09/25 04:12:37;;;;;;;8.38;6.07;;;14.40;66.80;;;;;;5073697;28;20062;-63
2021/09/25 04:15:04;;;;;;;10.50;6.15;;;14.50;66.90;;;;;;5060218;28;20037;-64
2021/09/25 04:17:29;;;;;;;9.40;6.10;;;14.50;66.90;;;;;;5069414;28;20078;-64
2021/09/25 04:19:55;;;;;;;12.43;5.78;;;14.50;66.90;;;;;;5073469;28;20025;-63
2021/09/25 04:22:21;;;;;;;8.88;5.30;;;14.40;66.90;;;;;;5073492;28;20028;-64
2021/09/25 04:24:47;;;;;;;9.40;6.60;;;14.40;66.90;;;;;;5073362;28;20028;-63
2021/09/25 04:27:12;;;;;;;7.72;5.80;;;14.40;66.90;;;;;;5073419;28;20073;-63
2021/09/25 04:29:38;;;;;;;6.95;5.80;;;14.40;67.00;;;;;;5073296;28;20056;-64
2021/09/25 04:32:05;;;;;;;8.20;5.85;;;14.40;67.00;;;;;;5057203;28;20098;-63
2021/09/25 04:34:31;;;;;;;13.25;6.85;;;14.40;67.20;;;;;;5053235;28;20470;-63
2021/09/25 04:36:58;;;;;;;9.95;6.00;;;14.40;67.30;;;;;;5053138;28;20048;-63
2021/09/25 04:39:24;;;;;;;8.45;5.47;;;14.40;67.20;;;;;;5053032;28;20032;-63
2021/09/25 04:41:51;;;;;;;11.65;5.55;;;14.40;67.20;;;;;;5052836;28;20021;-63
2021/09/25 04:44:17;;;;;;;11.20;6.97;;;14.40;67.20;;;;;;5053001;28;20025;-63
2021/09/25 04:46:45;;;;;;;10.73;6.22;;;14.40;67.30;;;;;;5060274;28;20033;-64
2021/09/25 04:49:11;;;;;;;10.55;6.80;;;14.40;67.40;;;;;;5052952;28;20505;-64
2021/09/25 04:51:37;;;;;;;9.10;6.47;;;14.40;67.40;;;;;;5051615;28;20074;-62
2021/09/25 04:54:04;;;;;;;8.38;5.82;;;14.40;67.40;;;;;;5052559;28;20013;-64
2021/09/25 04:56:31;;;;;;;11.98;6.82;;;14.30;67.30;;;;;;5052983;28;20021;-63
2021/09/25 04:58:57;;;;;;;11.48;6.20;;;14.40;67.30;;;;;;5051540;28;20057;-63
2021/09/25 05:01:23;;;;;;;13.95;6.95;;;14.40;67.30;;;;;;5052615;28;20075;-64
2021/09/25 05:03:49;;;;;;;13.05;6.72;;;14.40;67.50;;;;;;5052687;28;20025;-63
2021/09/25 05:06:15;;;;;;;16.13;7.55;;;14.40;67.60;;;;;;5059095;28;20033;-63
2021/09/25 05:08:41;;;;;;;9.88;6.75;;;14.40;67.80;;;;;;5052663;28;20031;-63
2021/09/25 05:11:07;;;;;;;12.32;7.22;;;14.40;67.80;;;;;;5052443;28;20116;-63
2021/09/25 05:13:33;;;;;;;13.48;8.35;;;14.40;67.80;;;;;;5060873;28;20024;-64
2021/09/25 05:15:59;;;;;;;16.92;8.05;;;14.40;68.10;;;;;;5067785;28;20025;-64
2021/09/25 05:18:24;;;;;;;11.23;7.38;;;14.40;68.10;;;;;;5052312;28;20029;-63
2021/09/25 05:20:51;;;;;;;10.52;6.05;;;14.40;68.10;;;;;;5052094;28;20029;-64
2021/09/25 05:23:17;;;;;;;13.48;8.00;;;14.40;68.00;;;;;;5053161;28;20104;-64
2021/09/25 05:25:43;;;;;;;14.27;8.40;;;14.50;68.20;;;;;;5052547;28;20025;-63
2021/09/25 05:28:09;;;;;;;15.68;9.05;;;14.50;68.50;;;;;;5052569;28;20040;-64
2021/09/25 05:30:36;;;;;;;13.15;8.98;;;14.50;68.60;;;;;;5052311;28;20486;-63
2021/09/25 05:33:02;;;;;;;20.30;9.18;;;14.50;68.80;;;;;;5052147;28;20147;-64
2021/09/25 05:35:28;;;;;;;16.80;9.82;;;14.50;68.90;;;;;;5052201;28;20017;-63
2021/09/25 05:37:53;;;;;;;13.48;8.20;;;14.60;68.90;;;;;;5052063;28;20390;-64
2021/09/25 05:40:20;;;;;;;10.80;7.70;;;14.60;68.90;;;;;;5061392;28;20501;-63
2021/09/25 05:42:46;;;;;;;13.27;7.35;;;14.60;68.80;;;;;;5060089;28;20122;-64
2021/09/25 05:45:11;;;;;;;10.68;7.07;;;14.60;68.80;;;;;;5051978;28;20485;-64
2021/09/25 05:47:37;;;;;;;15.20;7.50;;;14.70;68.80;;;;;;5050812;28;20186;-63
2021/09/25 05:50:04;;;;;;;13.20;7.55;;;14.70;68.80;;;;;;5051698;28;20494;-64
2021/09/25 05:52:30;;;;;;;12.05;8.38;;;14.80;68.80;;;;;;5051767;28;20033;-63
2021/09/25 05:54:56;;;;;;;13.68;8.15;;;14.80;68.70;;;;;;5051990;28;20024;-64
2021/09/25 05:57:22;;;;;;;14.32;8.50;;;14.80;68.60;;;;;;5052404;28;20075;-63
2021/09/25 05:59:47;;;;;;;14.73;8.48;;;14.90;68.80;;;;;;5055340;28;20024;-63
2021/09/25 06:02:13;;;;;;;13.60;7.63;;;14.90;68.60;;;;;;5059289;28;20040;-64
2021/09/25 06:04:39;;;;;;;16.35;9.10;;;15.00;68.70;;;;;;5071992;28;20029;-63
2021/09/25 06:07:05;;;;;;;19.10;9.70;;;15.00;68.70;;;;;;5071955;28;20100;-63
2021/09/25 06:09:31;;;;;;;15.00;9.18;;;15.10;68.60;;;;;;5069015;28;20424;-63
2021/09/25 06:11:57;;;;;;;12.98;8.85;;;15.10;68.50;;;;;;5051557;28;20037;-63
2021/09/25 06:14:23;;;;;;;11.82;7.82;;;15.20;68.50;;;;;;5051715;28;20371;-64
2021/09/25 06:16:49;;;;;;;13.20;8.38;;;15.20;68.40;;;;;;5061863;28;20485;-64
2021/09/25 06:19:14;;;;;;;15.15;8.68;;;15.20;68.30;;;;;;5071297;28;20059;-63
2021/09/25 06:21:41;;;;;;;14.50;8.40;;;15.30;68.30;;;;;;5051616;28;20585;-63
2021/09/25 06:24:07;;;;;;;12.93;8.15;;;15.30;68.20;;;;;;5051575;28;20032;-64
2021/09/25 06:26:33;;;;;;;15.23;7.57;;;15.30;68.10;;;;;;5051685;28;20478;-63
2021/09/25 06:28:59;;;;;;;13.00;7.43;;;15.40;68.00;;;;;;5051545;28;20039;-63
2021/09/25 06:31:25;;;;;;;14.07;7.00;;;15.40;68.00;;;;;;5051286;28;20037;-63
2021/09/25 06:33:50;;;;;;;14.55;9.02;;;15.50;68.00;;;;;;5052928;28;20045;-63
2021/09/25 06:36:16;;;;;;;10.77;7.43;;;15.50;67.90;;;;;;5055410;28;20321;-63
2021/09/25 06:38:42;;;;;;;12.25;7.43;;;15.60;68.00;;;;;;5055302;28;20037;-63
2021/09/25 06:41:08;;;;;;;12.73;7.55;;;15.70;67.90;;;;;;5055216;28;20040;-63
2021/09/25 06:43:34;;;;;;;11.55;8.05;;;15.70;67.70;;;;;;5067009;28;20047;-63
2021/09/25 06:46:00;;;;;;;10.90;7.78;;;15.80;67.70;;;;;;5075200;28;20029;-63
2021/09/25 06:48:26;;;;;;;9.85;6.80;;;15.90;67.60;;;;;;5066787;28;20055;-63
2021/09/25 06:50:51;;;;;;;9.00;6.38;;;15.90;67.40;;;;;;5058383;28;20473;-63
2021/09/25 06:53:17;;;;;;;9.27;6.32;;;16.00;67.30;;;;;;5055063;28;20024;-63
2021/09/25 06:55:43;;;;;;;10.07;7.13;;;16.10;67.20;;;;;;5055018;28;20445;-63
2021/09/25 06:58:09;;;;;;;7.65;5.90;;;16.10;67.10;;;;;;5055044;28;20017;-63
2021/09/25 07:00:35;;;;;;;8.32;6.53;;;16.20;67.00;;;;;;5054669;28;20074;-63
2021/09/25 07:03:01;;;;;;;14.75;7.63;;;16.30;67.00;;;;;;5053492;28;20057;-63
2021/09/25 07:05:27;;;;;;;13.07;7.68;;;16.30;67.00;;;;;;5054691;28;20037;-63
2021/09/25 07:07:53;;;;;;;11.13;7.53;;;16.40;67.00;;;;;;5054880;28;20040;-64
2021/09/25 07:10:19;;;;;;;8.70;7.32;;;16.50;66.90;;;;;;5054788;28;20429;-63
2021/09/25 07:12:45;;;;;;;10.60;7.15;;;16.50;66.70;;;;;;5056966;28;20504;-63
2021/09/25 07:15:12;;;;;;;12.10;8.05;;;16.60;66.60;;;;;;5054872;28;20021;-63
2021/09/25 07:17:38;;;;;;;11.82;7.68;;;16.70;66.70;;;;;;5054872;28;20053;-63
2021/09/25 07:20:06;;;;;;;11.98;7.30;;;16.80;66.50;;;;;;5074230;28;20025;-63
2021/09/25 07:22:33;;;;;;;10.68;8.15;;;16.80;66.30;;;;;;5072294;28;20384;-64
2021/09/25 07:24:58;;;;;;;10.88;7.80;;;16.90;66.20;;;;;;5056107;28;20104;-63
2021/09/25 07:27:26;;;;;;;14.77;7.70;;;17.00;66.00;;;;;;5075679;28;20091;-63
2021/09/25 07:29:52;;;;;;;12.93;8.20;;;17.00;65.70;;;;;;5072553;28;20058;-63
2021/09/25 07:32:19;;;;;;;13.05;7.72;;;17.10;65.60;;;;;;5065884;28;20085;-63
2021/09/25 07:34:45;;;;;;;14.98;7.85;;;17.10;65.30;;;;;;5074058;28;20025;-64
2021/09/25 07:37:11;;;;;;;10.73;8.15;;;17.20;65.30;;;;;;5066858;28;20020;-63
2021/09/25 07:39:39;;;;;;;13.52;9.35;;;17.30;65.30;;;;;;5056093;28;20509;-64
2021/09/25 07:42:05;;;;;;;13.20;10.05;;;17.40;65.30;;;;;;5073045;28;20058;-63
2021/09/25 07:44:31;;;;;;;18.00;10.88;;;17.40;65.00;;;;;;5074373;28;20489;-63
2021/09/25 07:46:57;;;;;;;14.52;10.68;;;17.50;64.90;;;;;;5063506;28;20035;-63
2021/09/25 07:49:23;;;;;;;16.00;9.90;;;17.50;64.70;;;;;;5070874;28;20024;-63
2021/09/25 07:51:48;;;;;;;11.00;8.90;;;17.50;64.60;;;;;;5065311;28;20086;-63
2021/09/25 07:54:14;;;;;;;13.10;9.60;;;17.60;64.50;;;;;;5071542;28;20482;-63
2021/09/25 07:56:40;;;;;;;14.48;10.32;;;17.70;64.40;;;;;;5070355;28;20025;-63
2021/09/25 07:59:06;;;;;;;12.38;9.77;;;17.80;64.50;;;;;;5065251;28;20033;-64
2021/09/25 08:01:32;;;;;;;17.67;10.70;;;17.80;64.40;;;;;;5072036;28;20147;-63
2021/09/25 08:03:57;;;;;;;20.08;11.40;;;17.90;64.20;;;;;;5073790;28;20032;-63
2021/09/25 08:06:23;;;;;;;13.00;10.05;;;18.00;64.00;;;;;;5059693;28;20033;-64
2021/09/25 08:08:49;;;;;;;15.63;10.30;;;18.00;63.80;;;;;;5053584;28;20478;-64
2021/09/25 08:11:15;;;;;;;12.50;8.95;;;18.10;63.70;;;;;;5062039;28;20546;-63
2021/09/25 08:13:41;;;;;;;17.10;10.80;;;18.20;63.40;;;;;;5063295;28;20425;-63
2021/09/25 08:16:07;;;;;;;15.82;10.63;;;18.20;63.20;;;;;;5054136;28;20078;-64
2021/09/25 08:18:32;;;;;;;13.85;9.75;;;18.30;63.10;;;;;;5059640;28;20025;-64
2021/09/25 08:20:58;;;;;;;18.98;9.38;;;18.40;62.90;;;;;;5073344;28;20470;-63
2021/09/25 08:23:24;;;;;;;17.02;10.30;;;18.40;62.90;;;;;;5059995;28;20052;-64
2021/09/25 08:25:52;;;;;;;15.38;10.90;;;18.50;62.70;;;;;;5070260;28;20066;-64
2021/09/25 08:28:18;;;;;;;16.92;10.13;;;18.60;62.60;;;;;;5065051;28;20058;-64
2021/09/25 08:30:43;;;;;;;15.93;11.00;;;18.70;62.50;;;;;;5053220;28;20072;-64
2021/09/25 08:33:09;;;;;;;13.43;9.85;;;18.70;62.20;;;;;;5053034;28;20096;-63
2021/09/25 08:35:35;;;;;;;11.10;8.85;;;18.80;62.30;;;;;;5069661;28;20496;-63
2021/09/25 08:38:01;;;;;;;13.98;10.73;;;18.80;62.30;;;;;;5052913;28;20049;-65
2021/09/25 08:40:27;;;;;;;15.05;10.05;;;18.90;61.90;;;;;;5053062;28;20497;-65
2021/09/25 08:42:53;;;;;;;15.20;10.00;;;19.00;61.80;;;;;;5053037;28;20036;-64
2021/09/25 08:45:21;;;;;;;14.95;10.93;;;19.00;61.80;;;;;;5069421;28;20025;-65
2021/09/25 08:47:47;;;;;;;17.45;11.07;;;19.00;61.80;;;;;;5061722;28;20032;-65
2021/09/25 08:50:15;;;;;;;19.60;13.57;;;19.10;61.50;;;;;;5053028;28;20033;-65
2021/09/25 08:52:41;;;;;;;19.95;14.18;;;19.20;61.20;;;;;;5057335;28;20024;-65
2021/09/25 08:55:10;;;;;;;22.67;13.93;;;19.20;61.00;;;;;;5069152;28;20104;-65
2021/09/25 08:57:36;;;;;;;19.50;13.93;;;19.30;60.90;;;;;;5072252;28;20501;-65
2021/09/25 09:00:23;;;;;;;22.88;14.55;;;19.40;60.30;;;;;;5057867;28;20060;-65
2021/09/25 09:02:49;;;;;;;21.60;14.18;;;19.50;60.50;;;;;;5051268;28;20072;-65
2021/09/25 09:05:29;;;;;;;24.73;14.70;;;19.60;60.50;;;;;;5052605;28;20071;-64
2021/09/25 09:07:59;;;;;;;28.00;16.05;;;19.60;59.80;;;;;;5054267;28;20029;-65
2021/09/25 09:10:33;;;;;;;25.90;16.98;;;19.80;60.10;;;;;;5054484;28;20036;-64
2021/09/25 09:12:59;;;;;;;20.65;13.90;;;19.80;59.60;;;;;;5052544;28;20024;-64
2021/09/25 09:15:36;;;;;;;21.00;14.00;;;19.90;59.60;;;;;;5052483;28;20037;-64
2021/09/25 09:18:02;;;;;;;17.25;12.23;;;20.00;59.30;;;;;;5055522;28;20107;-64
2021/09/25 09:20:29;;;;;;;18.92;13.65;;;20.10;59.50;;;;;;5070609;28;20047;-65
2021/09/25 09:23:15;;;;;;;18.67;11.68;;;20.10;59.10;;;;;;5052373;28;20041;-65
2021/09/25 09:25:41;;;;;;;23.40;12.35;;;20.20;58.80;;;;;;5052220;28;20021;-65
2021/09/25 09:28:38;;;;;;;23.65;13.82;;;20.30;58.60;;;;;;5052209;28;20029;-65
2021/09/25 09:31:05;;;;;;;15.73;10.50;;;20.30;58.50;;;;;;5051686;28;20037;-65
2021/09/25 09:33:52;;;;;;;12.75;9.73;;;20.40;58.30;;;;;;5057333;28;20028;-65
2021/09/25 09:36:37;;;;;;;15.43;10.13;;;20.40;58.40;;;;;;5069956;28;20403;-65
2021/09/25 09:39:15;;;;;;;12.77;8.27;;;20.60;58.40;;;;;;5051512;28;20032;-65
2021/09/25 09:41:47;;;;;;;16.00;11.43;;;20.60;58.20;;;;;;5067795;28;20170;-66
2021/09/25 09:44:21;;;;;;;18.65;12.32;;;20.70;58.00;;;;;;5069334;28;20421;-65
2021/09/25 09:46:53;;;;;;;20.33;12.15;;;20.80;57.60;;;;;;5064751;28;20060;-65
2021/09/25 09:49:27;;;;;;;15.95;11.25;;;20.80;57.20;;;;;;5055407;28;20045;-65
2021/09/25 09:52:02;;;;;;;15.30;10.57;;;20.80;57.00;;;;;;5057717;28;20043;-66
2021/09/25 09:54:30;;;;;;;11.40;9.50;;;20.90;57.00;;;;;;5067723;28;20096;-65
2021/09/25 09:57:08;;;;;;;13.07;9.13;;;20.90;56.90;;;;;;5062136;28;20504;-65
2021/09/25 09:59:34;;;;;;;15.48;10.25;;;21.00;56.80;;;;;;5060858;28;20453;-65
2021/09/25 10:02:00;;;;;;;13.90;9.35;;;21.00;56.60;;;;;;5055928;28;20041;-65
2021/09/25 10:04:26;;;;;;;17.60;10.73;;;21.10;56.50;;;;;;5054192;28;20029;-64
2021/09/25 10:06:52;;;;;;;13.63;9.88;;;21.20;56.70;;;;;;5061311;28;20048;-65
2021/09/25 10:09:21;;;;;;;15.48;8.93;;;21.20;56.70;;;;;;5060392;28;20039;-65
2021/09/25 10:11:50;;;;;;;14.38;10.27;;;21.30;56.90;;;;;;5064664;28;20028;-65
2021/09/25 10:14:19;;;;;;;14.15;9.52;;;21.40;56.80;;;;;;5068650;28;20044;-65
2021/09/25 10:16:45;;;;;;;16.55;9.48;;;21.50;56.40;;;;;;5066899;28;20067;-65
2021/09/25 10:19:12;;;;;;;16.00;9.60;;;21.50;56.30;;;;;;5059181;28;20328;-65
2021/09/25 10:21:39;;;;;;;13.65;9.27;;;21.60;56.30;;;;;;5060474;28;20037;-65
2021/09/25 10:24:11;;;;;;;15.30;10.00;;;21.70;55.70;;;;;;5065287;28;20383;-65
2021/09/25 10:26:44;;;;;;;16.30;10.48;;;21.70;55.30;;;;;;5055563;28;20028;-65
2021/09/25 10:29:17;;;;;;;17.58;9.02;;;21.80;55.40;;;;;;5066597;28;20153;-65
2021/09/25 10:31:43;;;;;;;16.30;10.15;;;21.90;55.30;;;;;;5063526;28;20033;-65
2021/09/25 10:34:25;;;;;;;14.00;9.23;;;22.00;55.80;;;;;;5060109;28;20017;-65
2021/09/25 10:36:55;;;;;;;12.52;9.50;;;22.00;55.60;;;;;;5058715;28;20055;-65
2021/09/25 10:39:36;;;;;;;15.70;9.73;;;22.10;55.30;;;;;;5066043;28;20074;-65
2021/09/25 10:42:12;;;;;;;12.85;9.13;;;22.10;55.70;;;;;;5070799;28;20039;-65
2021/09/25 10:44:48;;;;;;;17.00;9.23;;;22.20;55.10;;;;;;5073564;28;20032;-65
2021/09/25 10:47:22;;;;;;;13.07;8.77;;;22.20;54.90;;;;;;5055122;28;20059;-65
2021/09/25 10:49:50;;;;;;;13.50;8.02;;;22.30;55.50;;;;;;5055321;28;20017;-65
2021/09/25 10:52:22;;;;;;;12.88;8.93;;;22.30;54.80;;;;;;5055115;28;20036;-65
2021/09/25 10:55:24;;;;;;;13.15;8.27;;;22.40;54.70;;;;;;5055051;28;20056;-65
2021/09/25 10:58:11;;;;;;;11.18;7.90;;;22.40;54.60;;;;;;5055070;28;20137;-66
2021/09/25 11:00:46;;;;;;;11.98;8.50;;;22.50;54.50;;;;;;5055038;28;20102;-66
2021/09/25 11:03:32;;;;;;;13.52;7.88;;;22.50;54.20;;;;;;5056860;28;20084;-65
2021/09/25 11:06:06;;;;;;;13.13;7.45;;;22.60;54.30;;;;;;5073630;28;20409;-65
2021/09/25 11:08:33;;;;;;;8.98;6.90;;;22.60;54.00;;;;;;5063128;28;20033;-66
2021/09/25 11:11:15;;;;;;;9.65;6.05;;;22.70;53.80;;;;;;5053484;28;20108;-66
2021/09/25 11:14:05;;;;;;;11.18;7.72;;;22.70;53.60;;;;;;5053531;28;20032;-66
2021/09/25 11:16:50;;;;;;;9.20;6.90;;;22.80;53.70;;;;;;5053638;28;20074;-66
2021/09/25 11:19:21;;;;;;;;;;;22.90;53.80;;;;;;5053575;28;20021;-66
2021/09/25 11:21:56;;;;;;;18.35;5.22;;;22.90;54.40;;;;;;5052101;28;19921;-65
2021/09/25 11:24:23;;;;;;;9.07;5.40;;;22.90;52.50;;;;;;5053417;28;20471;-66
2021/09/25 11:26:48;;;;;;;8.35;5.35;;;23.00;51.70;;;;;;5053429;28;20385;-66
2021/09/25 11:29:14;;;;;;;10.77;5.80;;;23.00;51.90;;;;;;5053323;28;20096;-65
2021/09/25 11:31:41;;;;;;;7.38;5.38;;;23.00;51.60;;;;;;5053181;28;20051;-65
2021/09/25 11:34:39;;;;;;;6.05;4.95;;;23.10;51.10;;;;;;5053184;28;20532;-65
2021/09/25 11:37:06;;;;;;;6.88;5.00;;;23.10;52.50;;;;;;5081004;28;20112;-65
2021/09/25 11:39:46;;;;;;;7.70;5.32;;;23.20;51.00;;;;;;5090553;28;20027;-65
2021/09/25 11:42:31;;;;;;;5.78;4.63;;;23.20;50.70;;;;;;5091149;28;20043;-65
2021/09/25 11:45:00;;;;;;;7.50;4.43;;;23.20;50.90;;;;;;5090924;28;20123;-65
2021/09/25 11:47:36;;;;;;;10.35;4.78;;;23.30;51.00;;;;;;5090792;28;20162;-65
2021/09/25 11:50:12;;;;;;;6.93;4.38;;;23.40;50.10;;;;;;5090396;28;20500;-65
2021/09/25 11:52:39;;;;;;;22.05;4.65;;;23.40;49.50;;;;;;5090839;28;20059;-65
2021/09/25 11:55:07;;;;;;;8.68;4.53;;;23.50;49.90;;;;;;5091006;28;20032;-65
2021/09/25 11:57:33;;;;;;;4.85;3.78;;;23.50;49.90;;;;;;5082532;28;20024;-66
2021/09/25 11:59:59;;;;;;;4.90;4.03;;;23.60;49.20;;;;;;5071303;28;20348;-66
2021/09/25 12:02:37;;;;;;;5.03;4.10;;;23.60;50.10;;;;;;5047839;28;1209631;-65
2021/09/25 12:05:05;;;;;;;8.00;3.80;;;23.70;49.30;;;;;;5091813;28;20032;-65
2021/09/25 12:07:45;;;;;;;6.90;4.13;;;23.70;49.50;;;;;;5091694;28;20058;-65
2021/09/25 12:10:17;;;;;;;5.38;4.28;;;23.70;49.20;;;;;;5070715;28;20033;-65
2021/09/25 12:12:42;;;;;;;6.45;4.28;;;23.80;49.00;;;;;;5062013;28;20491;-65
2021/09/25 12:15:09;;;;;;;4.63;3.80;;;23.80;47.80;;;;;;5064190;28;20031;-65
2021/09/25 12:17:34;;;;;;;4.78;3.75;;;23.90;47.30;;;;;;5073657;28;20029;-65
2021/09/25 12:20:33;;;;;;;5.82;3.90;;;23.80;47.60;;;;;;5073455;28;20024;-65
2021/09/25 12:23:06;;;;;;;6.22;4.25;;;23.90;48.20;;;;;;5054495;28;20044;-65
2021/09/25 12:25:38;;;;;;;5.33;3.83;;;24.00;46.60;;;;;;5071386;28;20115;-65
2021/09/25 12:28:30;;;;;;;8.57;3.63;;;24.00;45.80;;;;;;5071244;28;20054;-65
2021/09/25 12:31:04;;;;;;;7.15;4.22;;;24.00;45.80;;;;;;5053502;28;20032;-66
2021/09/25 12:33:31;;;;;;;4.22;3.20;;;24.10;45.70;;;;;;5069151;28;20087;-65
2021/09/25 12:36:02;;;;;;;6.18;3.25;;;24.10;45.20;;;;;;5070576;28;20048;-65
2021/09/25 12:38:40;;;;;;;4.93;3.40;;;24.10;44.20;;;;;;5070992;28;20145;-65
2021/09/25 12:41:08;;;;;;;4.45;3.10;;;24.20;44.30;;;;;;5070896;28;20107;-65
2021/09/25 12:43:44;;;;;;;3.38;2.70;;;24.20;43.00;;;;;;5070709;28;20028;-65
2021/09/25 12:46:59;;;;;;;3.45;2.70;;;24.30;43.70;;;;;;5070633;28;20090;-65